Meteógrafos Informações Meteorológicas em tempo real
Aeroporto Internacional Pinto Martins
15-12-2019 23:56

Temperatura atual: 27 graus 80 F    Umidade relativa: 74 %
Velocidade do vento: 10 nós 18 Km/h    Direção: 090 graus E
Ajuste do altímetro ..: 1011 HPA
Visibilidade: Ótima    Tempo presente: Não Disponível

Observação
Poucas nuvens a 2300 Pés.
Data Hora BRTTempo°CUmidadePressãoVentoVisib.
15/12 - 23:56   Não Disponível 27° 74% 1011 Leste/18 km/h OK
15/12 - 22:56   Céu Limpo 28° 70% 1012 Leste/18 km/h OK
15/12 - 21:56   Céu Limpo 28° 74% 1012 Leste/14 km/h OK
15/12 - 20:56   Céu Limpo 28° 70% 1011 Este-nordeste/12 km/h OK
15/12 - 19:56   Céu Limpo 28° 70% 1011 Este-nordeste/12 km/h OK
15/12 - 18:56   Céu Limpo 28° 70% 1010 Este-nordeste/12 km/h OK
15/12 - 17:55   Não Disponível 28° 70% 1010 Este-nordeste/16 km/h OK
15/12 - 16:56   Céu Limpo 29° 66% 1009 Nordeste/16 km/h OK
15/12 - 15:56   Não Disponível 29° 66% 1008 Este-nordeste/23 km/h OK
15/12 - 14:56   Céu Limpo 30° 62% 1008 Este-nordeste/30 km/h OK
15/12 - 13:56   Não Disponível 30° 62% 1009 Leste/32 km/h OK
15/12 - 12:56   Não Disponível 31° 55% 1010 Leste/32 km/h OK
15/12 - 11:56   Não Disponível 31° 58% 1011 Leste/32 km/h OK
15/12 - 10:56   Poucas nuvens esparsas 31° 55% 1012 Este-sudeste/30 km/h OK
15/12 - 09:56   Poucas nuvens esparsas 31° 58% 1012 Leste/32 km/h OK
15/12 - 08:56   Chovendo na vizinhança 28° 74% 1012 Sudeste/18 km/h OK
15/12 - 07:56   Chovendo na vizinhança ND° ND% ND Sudeste/18 km/h OK
15/12 - 06:56   Chovendo na vizinhança 27° 78% 1012 Sul-sudeste/16 km/h OK
15/12 - 05:56   Poucas nuvens esparsas 26° 83% 1011 Este-sudeste/12 km/h OK
15/12 - 04:56   Poucas nuvens esparsas 27° 78% 1010 Leste/23 km/h OK
15/12 - 03:56   Poucas nuvens esparsas 27° 78% 1010 Leste/21 km/h OK
15/12 - 02:56   Poucas nuvens esparsas 27° 78% 1010 Leste/21 km/h OK
15/12 - 01:56   Parcialmente Nublado 28° 74% 1010 Leste/23 km/h OK
15/12 - 00:56   Parcialmente Nublado 28° 70% 1011 Leste/19 km/h OK

Termo de Uso  |   Links Úteis  |   Imprensa  |  Anuncie  |  Fale Conosco  |  Versão Celular  |   Política de Privacidade

Apolo11.com - Todos os direitos reservados - 2000 - 2019

"Existem velas que iluminam tudo, menos o próprio candelabro" - Hebbel